Doylestown, WI (53928)

10:20 AM CDT on July 29, 2015 (GMT -0500)
APRSWXNET | | Change Station
CLOSE
Current Station
Personal Weather Station
Location: Cambria, WI
Elevation: 944 ft
Nearby Weather Stations

Elev 944 ft 43.54 °N, 89.11 °W | Updated 20 minutes ago

Clear
Clear
75 °F
Feels Like 77 °F
N
4
Wind Variable Wind from West
Gusts 7.0 mph

Today
High -- | Low -- °F
--% Chance of Precip.
Yesterday
High -- | Low -- °F
Precip. -- in
5:42 AM 8:22 PM
Waxing Gibbous, 96% visible
Pressure 29.96 in
Visibility 10.0 miles
Clouds Mostly Cloudy 25000 ft
Heat Index 77 °F
Dew Point 59 °F
Humidity 57%
Rainfall in
Snow Depth Not available.
UV 3 out of 12
Pollen .20 out of 12
Air Quality Not available.
Flu Activity Not available.
METAR KMSN 291453Z VRB05KT 10SM BKN250 25/14 A2998 RMK AO2 SLP146 T02500144 51007

More Conditions Fewer Conditions

Pressure 29.96 in
Visibility 10.0 miles
Clouds Mostly Cloudy 25000 ft
Heat Index 77 °F
Dew Point 59 °F
Humidity 57%
Rainfall in
Snow Depth Not available.
UV 3 out of 12
Pollen .20 out of 12
Air Quality Not available.
Flu Activity Not available.
METAR KMSN 291453Z VRB05KT 10SM BKN250 25/14 A2998 RMK AO2 SLP146 T02500144 51007

More Conditions Fewer Conditions

10-Day Weather Forecast

×

Almanac

Astronomy

Jul. 29, 2015 Rise Set
Actual Time
Civil Twilight
Nautical Twilight
Astronomical Twilight
Moon
Length of Visible Light
Length of Day
Tomorrow will be .
, % of the Moon is Illuminated

Today's Extremes

State Highs State Lows

Community

WunderPhotos

Upload Photos

1,842,120 photos uploaded!

WunderBlogs® & News

Nearby

Air Quality

  Air Quality AQ Index Pollutant
Not available.

Snow Depth

Station Depth Elevation

Earthquake Activity

City Distance Mag. Time & Date
Minimum magnitude displayed is 2.5.

Coastal Water Temperatures

Place Temperature

Stations

Nearby Weather Stations

Station Location Temp. Windchill Dew Point Humidity Wind Precip. Elev Updated Type